createdAt,value
2018-12-09T00:01:46.865Z,626.03
2018-12-09T00:04:15.163Z,614.67
2018-12-09T00:06:44.428Z,618.77
2018-12-09T00:12:12.454Z,630.35
2018-12-09T00:14:40.759Z,614.48
2018-12-09T00:17:09.066Z,627.40
2018-12-09T00:19:37.448Z,633.87
2018-12-09T00:22:05.939Z,636.67
2018-12-09T00:24:34.256Z,638.27
2018-12-09T00:27:02.612Z,637.30
2018-12-09T00:29:30.961Z,643.27
2018-12-09T00:31:59.313Z,638.40
2018-12-09T00:34:27.644Z,639.27
2018-12-09T00:36:56.072Z,645.67
2018-12-09T00:39:24.384Z,654.60
2018-12-09T00:41:52.686Z,663.42
2018-12-09T00:44:21.026Z,653.50
2018-12-09T00:46:49.407Z,665.75
2018-12-09T00:49:17.697Z,667.85
2018-12-09T00:51:46.030Z,671.93
2018-12-09T00:54:14.390Z,677.70
2018-12-09T00:56:42.760Z,683.45
2018-12-09T00:59:11.088Z,688.03
2018-12-09T01:01:39.385Z,684.45
2018-12-09T01:04:07.678Z,692.65
2018-12-09T01:06:36.087Z,685.70
2018-12-09T01:09:05.329Z,686.10
2018-12-09T01:11:33.656Z,678.35
2018-12-09T01:14:02.069Z,683.90
2018-12-09T01:16:30.341Z,688.35
2018-12-09T01:18:58.655Z,675.00
2018-12-09T01:21:27.066Z,678.70
2018-12-09T01:23:55.473Z,679.20
2018-12-09T01:26:23.893Z,681.20
2018-12-09T01:31:50.505Z,684.35
2018-12-09T01:34:18.885Z,686.17
2018-12-09T01:36:47.225Z,681.40
2018-12-09T01:39:15.638Z,692.72
2018-12-09T01:41:44.385Z,696.15
2018-12-09T01:44:12.730Z,692.87
2018-12-09T01:46:41.069Z,700.40
2018-12-09T01:49:09.523Z,694.35
2018-12-09T01:51:37.812Z,694.33
2018-12-09T01:54:09.219Z,701.67
2018-12-09T01:56:38.868Z,702.35
2018-12-09T01:59:07.363Z,708.12
2018-12-09T02:01:36.418Z,707.73
2018-12-09T02:04:04.735Z,714.90
2018-12-09T02:06:33.637Z,710.37
2018-12-09T02:09:02.012Z,708.30
2018-12-09T02:11:30.332Z,698.37
2018-12-09T02:13:58.821Z,692.45
2018-12-09T02:16:27.242Z,670.88
2018-12-09T02:21:52.404Z,662.08
2018-12-09T02:24:21.541Z,655.75
2018-12-09T02:26:49.998Z,668.80
2018-12-09T02:29:18.607Z,657.05
2018-12-09T02:31:47.512Z,659.00
2018-12-09T02:34:15.957Z,649.65
2018-12-09T02:36:44.321Z,645.23
2018-12-09T02:39:13.036Z,650.20
2018-12-09T02:41:41.364Z,647.48
2018-12-09T02:45:45.438Z,648.90
2018-12-09T02:48:13.835Z,637.88
2018-12-09T02:50:43.094Z,644.85
2018-12-09T02:53:11.446Z,659.17
2018-12-09T02:55:39.782Z,641.80
2018-12-09T02:58:08.092Z,634.22
2018-12-09T03:00:36.482Z,637.62
2018-12-09T03:03:04.864Z,635.85
2018-12-09T03:05:34.260Z,634.10
2018-12-09T03:08:02.702Z,638.30
2018-12-09T03:10:30.981Z,645.67
2018-12-09T03:12:59.281Z,647.05
2018-12-09T03:15:28.157Z,657.88
2018-12-09T03:17:56.489Z,651.97
2018-12-09T03:20:24.874Z,660.30
2018-12-09T03:22:53.220Z,656.67
2018-12-09T03:25:21.539Z,651.22
2018-12-09T03:27:50.333Z,656.10
2018-12-09T03:30:18.684Z,643.70
2018-12-09T03:32:47.075Z,655.40
2018-12-09T03:35:16.313Z,644.40
2018-12-09T03:37:44.686Z,648.42
2018-12-09T03:40:13.109Z,635.75
2018-12-09T03:42:41.427Z,626.67
2018-12-09T03:45:09.881Z,631.87
2018-12-09T03:47:39.408Z,629.70
2018-12-09T03:50:08.015Z,624.23
2018-12-09T03:52:36.340Z,616.00
2018-12-09T03:55:05.322Z,623.17
2018-12-09T03:57:33.825Z,614.25
2018-12-09T04:00:02.336Z,613.90
2018-12-09T04:02:31.064Z,613.95
2018-12-09T04:05:00.306Z,620.57
2018-12-09T04:07:30.670Z,619.37
2018-12-09T04:09:59.154Z,622.30
2018-12-09T04:12:28.474Z,621.83
2018-12-09T04:14:56.790Z,629.33
2018-12-09T04:17:25.136Z,626.70
2018-12-09T04:19:53.472Z,631.47
2018-12-09T04:22:21.854Z,635.53
2018-12-09T04:24:50.639Z,630.10
2018-12-09T04:27:19.029Z,644.08
2018-12-09T04:29:47.345Z,625.45
2018-12-09T04:32:15.650Z,629.55
2018-12-09T04:34:46.038Z,636.02
2018-12-09T04:37:15.282Z,636.60
2018-12-09T04:39:44.527Z,635.63
2018-12-09T04:42:12.823Z,642.40
2018-12-09T04:44:41.249Z,648.67
2018-12-09T04:47:09.547Z,637.58
2018-12-09T04:49:38.785Z,642.43
2018-12-09T04:52:08.357Z,649.05
2018-12-09T04:54:37.976Z,637.67
2018-12-09T04:57:06.384Z,650.58
2018-12-09T04:59:36.884Z,637.27
2018-12-09T05:02:05.248Z,640.33
2018-12-09T05:04:34.406Z,629.70
2018-12-09T05:07:02.819Z,635.45
2018-12-09T05:09:32.186Z,639.15
2018-12-09T05:12:00.534Z,639.20
2018-12-09T05:14:28.939Z,654.40
2018-12-09T05:16:57.356Z,629.40
2018-12-09T05:19:25.737Z,634.55
2018-12-09T05:21:54.444Z,647.40
2018-12-09T05:24:23.033Z,651.48
2018-12-09T05:26:51.474Z,649.15
2018-12-09T05:29:20.784Z,637.38
2018-12-09T05:31:49.192Z,659.63
2018-12-09T05:34:17.506Z,653.80
2018-12-09T05:36:46.221Z,649.43
2018-12-09T05:39:14.628Z,639.60
2018-12-09T05:41:43.938Z,651.37
2018-12-09T05:44:13.725Z,637.08
2018-12-09T05:46:42.170Z,645.80
2018-12-09T05:49:10.482Z,636.30
2018-12-09T05:51:38.921Z,632.83
2018-12-09T05:54:07.312Z,631.70
2018-12-09T05:56:35.858Z,632.52
2018-12-09T05:59:04.173Z,618.55
2018-12-09T06:01:32.541Z,626.58
2018-12-09T06:04:00.873Z,629.05
2018-12-09T06:06:29.319Z,631.08
2018-12-09T06:08:58.043Z,633.50
2018-12-09T06:11:26.909Z,621.85
2018-12-09T06:13:55.220Z,619.83
2018-12-09T06:16:23.513Z,613.35
2018-12-09T06:18:51.899Z,596.42
2018-12-09T06:21:20.436Z,590.20
2018-12-09T06:23:48.753Z,566.40
2018-12-09T06:26:17.047Z,562.12
2018-12-09T06:28:45.463Z,543.20
2018-12-09T06:31:13.828Z,539.58
2018-12-09T06:33:42.172Z,525.22
2018-12-09T06:36:10.544Z,524.58
2018-12-09T06:38:38.941Z,504.92
2018-12-09T06:41:07.233Z,508.10
2018-12-09T06:43:35.557Z,500.00
2018-12-09T06:46:04.314Z,496.05
2018-12-09T06:48:32.705Z,482.43
2018-12-09T06:51:01.987Z,484.77
2018-12-09T06:53:30.382Z,473.65
2018-12-09T06:55:58.699Z,465.58
2018-12-09T06:58:27.081Z,464.40
2018-12-09T07:00:56.338Z,462.10
2018-12-09T07:03:24.641Z,464.73
2018-12-09T07:05:53.889Z,450.68
2018-12-09T07:08:22.222Z,450.92
2018-12-09T07:10:50.570Z,438.15
2018-12-09T07:13:19.862Z,429.18
2018-12-09T07:15:48.230Z,429.73
2018-12-09T07:18:16.553Z,429.07
2018-12-09T07:20:45.262Z,420.55
2018-12-09T07:23:13.773Z,430.57
2018-12-09T07:25:44.050Z,427.82
2018-12-09T07:28:12.399Z,412.48
2018-12-09T07:30:41.807Z,407.15
2018-12-09T07:33:10.517Z,408.42
2018-12-09T07:35:38.946Z,397.65
2018-12-09T07:38:07.293Z,397.35
2018-12-09T07:40:35.605Z,399.10
2018-12-09T07:43:04.026Z,394.82
2018-12-09T07:45:32.633Z,397.75
2018-12-09T07:48:00.940Z,410.87
2018-12-09T07:50:29.241Z,403.10
2018-12-09T07:52:58.728Z,408.12
2018-12-09T07:55:27.021Z,403.43
2018-12-09T08:00:54.047Z,408.80
2018-12-09T08:03:22.324Z,427.67
2018-12-09T08:05:51.244Z,423.35
2018-12-09T08:08:19.536Z,415.38
2018-12-09T08:10:47.921Z,423.28
2018-12-09T08:13:16.245Z,425.12
2018-12-09T08:15:44.551Z,418.13
2018-12-09T08:18:12.851Z,424.38
2018-12-09T08:20:41.630Z,419.70
2018-12-09T08:23:09.936Z,437.92
2018-12-09T08:25:38.264Z,426.65
2018-12-09T08:28:06.654Z,440.88
2018-12-09T08:30:35.022Z,442.40
2018-12-09T08:33:03.420Z,443.67
2018-12-09T08:35:31.762Z,436.90
2018-12-09T08:38:00.061Z,438.35
2018-12-09T08:40:28.389Z,441.30
2018-12-09T08:42:56.791Z,454.83
2018-12-09T08:45:25.102Z,452.67
2018-12-09T08:47:53.410Z,461.65
2018-12-09T08:50:21.720Z,456.60
2018-12-09T08:52:50.526Z,451.00
2018-12-09T08:55:18.968Z,454.45
2018-12-09T08:57:47.289Z,451.75
2018-12-09T09:00:15.629Z,440.40
2018-12-09T09:02:43.929Z,445.85
2018-12-09T09:05:12.230Z,442.80
2018-12-09T09:07:40.625Z,450.72
2018-12-09T09:10:08.970Z,450.22
2018-12-09T09:12:37.372Z,445.85
2018-12-09T09:15:36.578Z,447.73
2018-12-09T09:18:05.866Z,449.97
2018-12-09T09:20:35.095Z,445.60
2018-12-09T09:23:03.457Z,444.73
2018-12-09T09:25:31.776Z,454.13
2018-12-09T09:28:00.083Z,465.23
2018-12-09T09:30:28.405Z,462.95
2018-12-09T09:32:56.790Z,467.12
2018-12-09T09:35:25.158Z,479.27
2018-12-09T09:37:54.414Z,474.85
2018-12-09T09:40:22.733Z,477.37
2018-12-09T09:42:51.029Z,479.80
2018-12-09T09:45:20.259Z,491.90
2018-12-09T09:47:49.555Z,498.95
2018-12-09T09:50:17.863Z,506.85
2018-12-09T09:52:46.199Z,517.60
2018-12-09T09:55:14.555Z,527.83
2018-12-09T09:57:42.918Z,518.63
2018-12-09T10:00:11.224Z,525.42
2018-12-09T10:02:40.484Z,525.85
2018-12-09T10:05:08.764Z,520.23
2018-12-09T10:10:35.868Z,518.55
2018-12-09T10:13:04.321Z,518.90
2018-12-09T10:15:32.635Z,520.60
2018-12-09T10:18:02.687Z,518.23
2018-12-09T10:20:31.715Z,520.98
2018-12-09T10:23:00.020Z,513.52
2018-12-09T10:25:28.314Z,519.65
2018-12-09T10:27:56.629Z,502.95
2018-12-09T10:30:25.001Z,505.87
2018-12-09T10:32:53.321Z,508.80
2018-12-09T10:35:22.117Z,506.97
2018-12-09T10:37:50.413Z,509.33
2018-12-09T10:40:18.737Z,508.35
2018-12-09T10:42:47.137Z,517.58
2018-12-09T10:45:15.482Z,510.63
2018-12-09T10:47:43.787Z,506.73
2018-12-09T10:50:12.155Z,512.58
2018-12-09T10:52:40.453Z,505.13
2018-12-09T10:55:08.761Z,517.60
2018-12-09T10:57:37.079Z,517.33
2018-12-09T11:00:07.609Z,520.07
2018-12-09T11:02:35.996Z,530.90
2018-12-09T11:05:04.931Z,527.42
2018-12-09T11:07:33.283Z,529.53
2018-12-09T11:10:01.633Z,530.75
2018-12-09T11:12:29.972Z,526.82
2018-12-09T11:14:58.390Z,524.60
2018-12-09T11:17:27.306Z,540.10
2018-12-09T11:19:55.693Z,540.75
2018-12-09T11:22:24.042Z,530.60
2018-12-09T11:24:52.544Z,542.95
2018-12-09T11:27:20.851Z,555.37
2018-12-09T11:29:49.154Z,542.05
2018-12-09T11:32:17.522Z,554.08
2018-12-09T11:34:45.882Z,544.47
2018-12-09T11:37:14.205Z,541.02
2018-12-09T11:39:42.610Z,546.53
2018-12-09T11:42:10.993Z,557.42
2018-12-09T11:44:39.405Z,567.98
2018-12-09T11:47:07.738Z,568.50
2018-12-09T11:49:36.057Z,572.27
2018-12-09T11:52:04.345Z,586.85
2018-12-09T11:54:32.768Z,598.60
2018-12-09T11:57:01.963Z,612.90
2018-12-09T11:59:31.351Z,610.33
2018-12-09T12:01:59.781Z,614.73
2018-12-09T12:04:28.136Z,612.25
2018-12-09T12:06:56.643Z,614.20
2018-12-09T12:09:24.923Z,611.80
2018-12-09T12:11:53.455Z,597.83
2018-12-09T12:14:21.784Z,589.45
2018-12-09T12:16:50.086Z,585.70
2018-12-09T12:19:18.444Z,574.85
2018-12-09T12:21:46.847Z,585.03
2018-12-09T12:24:15.141Z,592.50
2018-12-09T12:26:43.435Z,602.70
2018-12-09T12:29:11.783Z,594.42
2018-12-09T12:31:40.148Z,577.67
2018-12-09T12:34:08.482Z,573.13
2018-12-09T12:36:36.907Z,565.57
2018-12-09T12:39:06.017Z,554.67
2018-12-09T12:41:34.423Z,537.30
2018-12-09T12:44:02.778Z,543.40
2018-12-09T12:46:31.118Z,542.35
2018-12-09T12:48:59.497Z,546.83
2018-12-09T12:51:27.825Z,547.92
2018-12-09T12:53:56.139Z,548.50
2018-12-09T12:56:24.488Z,544.80
2018-12-09T12:58:52.845Z,538.30
2018-12-09T13:01:22.050Z,538.27
2018-12-09T13:03:50.354Z,526.70
2018-12-09T13:06:19.175Z,530.00
2018-12-09T13:08:47.481Z,527.42
2018-12-09T13:11:15.794Z,527.67
2018-12-09T13:13:44.217Z,533.30
2018-12-09T13:16:12.518Z,529.53
2018-12-09T13:18:40.830Z,541.67
2018-12-09T13:21:09.233Z,541.90
2018-12-09T13:23:37.620Z,544.60
2018-12-09T13:26:06.121Z,537.30
2018-12-09T13:28:34.708Z,530.80
2018-12-09T13:31:03.977Z,523.90
2018-12-09T13:33:32.787Z,520.95
2018-12-09T13:36:02.459Z,517.05
2018-12-09T13:38:31.693Z,501.75
2018-12-09T13:41:00.090Z,498.25
2018-12-09T13:43:28.434Z,497.57
2018-12-09T13:45:56.753Z,487.75
2018-12-09T13:48:25.020Z,485.30
2018-12-09T13:50:54.306Z,490.15
2018-12-09T13:53:22.605Z,496.40
2018-12-09T13:55:50.894Z,497.10
2018-12-09T13:58:19.221Z,486.20
2018-12-09T14:00:47.546Z,493.00
2018-12-09T14:03:15.884Z,477.43
2018-12-09T14:05:45.704Z,480.93
2018-12-09T14:08:13.992Z,492.22
2018-12-09T14:10:42.298Z,492.75
2018-12-09T14:13:10.863Z,497.30
2018-12-09T14:15:39.409Z,490.45
2018-12-09T14:18:07.775Z,502.58
2018-12-09T14:20:36.165Z,498.70
2018-12-09T14:23:05.596Z,496.12
2018-12-09T14:25:34.854Z,495.42
2018-12-09T14:28:03.230Z,506.13
2018-12-09T14:30:32.449Z,498.50
2018-12-09T14:33:01.441Z,497.70
2018-12-09T14:35:29.861Z,504.80
2018-12-09T14:37:58.177Z,493.80
2018-12-09T14:40:27.066Z,493.27
2018-12-09T14:42:55.789Z,491.80
2018-12-09T14:45:24.102Z,502.15
2018-12-09T14:47:52.441Z,509.45
2018-12-09T14:50:20.779Z,497.57
2018-12-09T14:52:50.115Z,493.30
2018-12-09T14:55:18.435Z,493.27
2018-12-09T14:57:46.755Z,490.52
2018-12-09T15:00:15.266Z,496.00
2018-12-09T15:02:43.570Z,490.98
2018-12-09T15:05:11.990Z,485.80
2018-12-09T15:07:40.285Z,478.38
2018-12-09T15:10:09.101Z,475.70
2018-12-09T15:12:37.725Z,481.85
2018-12-09T15:15:06.289Z,487.32
2018-12-09T15:17:35.610Z,483.02
2018-12-09T15:20:05.137Z,484.65
2018-12-09T15:22:33.508Z,476.75
2018-12-09T15:25:01.942Z,484.52
2018-12-09T15:27:30.235Z,488.20
2018-12-09T15:29:58.661Z,482.90
2018-12-09T15:32:26.978Z,478.20
2018-12-09T15:34:55.277Z,473.55
2018-12-09T15:37:23.593Z,472.77
2018-12-09T15:39:51.909Z,465.55
2018-12-09T15:42:20.215Z,464.97
2018-12-09T15:44:49.436Z,462.63
2018-12-09T15:47:17.748Z,462.30
2018-12-09T15:49:46.157Z,462.15
2018-12-09T15:52:14.522Z,458.00
2018-12-09T15:54:42.847Z,454.60
2018-12-09T15:57:11.218Z,466.20
2018-12-09T15:59:39.620Z,462.40
2018-12-09T16:02:07.982Z,456.30
2018-12-09T16:04:36.295Z,462.20
2018-12-09T16:07:04.608Z,469.65
2018-12-09T16:09:32.935Z,470.25
2018-12-09T16:12:01.311Z,464.17
2018-12-09T16:14:29.641Z,459.25
2018-12-09T16:16:58.843Z,463.60
2018-12-09T16:19:27.245Z,453.62
2018-12-09T16:21:55.567Z,462.20
2018-12-09T16:24:23.876Z,468.60
2018-12-09T16:26:52.260Z,459.27
2018-12-09T16:29:20.660Z,455.48
2018-12-09T16:31:48.941Z,463.95
2018-12-09T16:34:17.288Z,450.27
2018-12-09T16:36:45.737Z,446.10
2018-12-09T16:39:14.102Z,446.03
2018-12-09T16:41:42.471Z,434.05
2018-12-09T16:44:10.763Z,433.53
2018-12-09T16:46:39.068Z,424.00
2018-12-09T16:49:07.524Z,424.23
2018-12-09T16:51:35.905Z,442.77
2018-12-09T16:54:04.946Z,427.02
2018-12-09T16:56:33.247Z,429.57
2018-12-09T16:59:01.665Z,414.32
2018-12-09T17:01:31.907Z,411.32
2018-12-09T17:04:00.267Z,412.65
2018-12-09T17:06:28.626Z,417.27
2018-12-09T17:08:57.043Z,416.38
2018-12-09T17:11:25.353Z,421.25
2018-12-09T17:13:53.637Z,430.98
2018-12-09T17:16:22.965Z,434.43
2018-12-09T17:18:51.390Z,436.92
2018-12-09T17:21:19.963Z,437.07
2018-12-09T17:23:48.331Z,443.07
2018-12-09T17:26:17.226Z,441.18
2018-12-09T17:28:45.536Z,443.82
2018-12-09T17:31:13.934Z,440.73
2018-12-09T17:36:39.017Z,451.73
2018-12-09T17:39:07.381Z,446.60
2018-12-09T17:41:35.800Z,456.20
2018-12-09T17:44:04.162Z,466.27
2018-12-09T17:46:32.524Z,460.37
2018-12-09T17:49:00.822Z,467.25
2018-12-09T17:51:29.175Z,467.57
2018-12-09T17:53:57.537Z,469.20
2018-12-09T17:56:25.911Z,459.60
2018-12-09T17:58:54.259Z,457.55
2018-12-09T18:01:23.515Z,465.82
2018-12-09T18:03:52.708Z,465.45
2018-12-09T18:06:21.040Z,461.95
2018-12-09T18:08:50.253Z,456.35
2018-12-09T18:11:18.674Z,455.98
2018-12-09T18:13:47.003Z,459.98
2018-12-09T18:16:15.421Z,445.92
2018-12-09T18:18:43.779Z,448.45
2018-12-09T18:21:12.140Z,452.43
2018-12-09T18:23:40.457Z,438.27
2018-12-09T18:26:08.745Z,439.40
2018-12-09T18:28:37.133Z,428.50
2018-12-09T18:31:05.433Z,432.32
2018-12-09T18:33:34.049Z,432.02
2018-12-09T18:36:02.371Z,420.05
2018-12-09T18:38:30.805Z,431.02
2018-12-09T18:40:59.326Z,432.52
2018-12-09T18:43:27.662Z,429.80
2018-12-09T18:45:56.881Z,429.85
2018-12-09T18:48:25.167Z,420.98
2018-12-09T18:50:53.522Z,426.13
2018-12-09T18:53:21.872Z,429.02
2018-12-09T18:55:50.253Z,433.20
2018-12-09T18:58:18.625Z,443.33
2018-12-09T19:00:47.861Z,431.00
2018-12-09T19:03:17.183Z,422.98
2018-12-09T19:05:45.809Z,444.23
2018-12-09T19:08:14.228Z,436.85
2018-12-09T19:10:42.549Z,429.20
2018-12-09T19:13:10.923Z,432.10
2018-12-09T19:15:39.228Z,437.98
2018-12-09T19:18:07.567Z,431.40
2018-12-09T19:20:35.878Z,437.05
2018-12-09T19:23:04.146Z,422.73
2018-12-09T19:25:32.494Z,431.85
2018-12-09T19:28:01.315Z,423.28
2018-12-09T19:30:30.307Z,433.37
2018-12-09T19:32:58.699Z,434.10
2018-12-09T19:35:27.045Z,442.68
2018-12-09T19:37:55.329Z,436.88
2018-12-09T19:40:23.724Z,442.27
2018-12-09T19:42:52.952Z,452.43
2018-12-09T19:45:21.342Z,452.50
2018-12-09T19:47:49.633Z,445.23
2018-12-09T19:50:18.071Z,441.93
2018-12-09T19:52:46.411Z,437.45
2018-12-09T19:55:14.848Z,451.82
2018-12-09T19:57:45.128Z,448.07
2018-12-09T20:00:13.469Z,437.48
2018-12-09T20:02:41.750Z,448.52
2018-12-09T20:05:10.073Z,446.85
2018-12-09T20:07:38.380Z,439.05
2018-12-09T20:10:07.464Z,433.85
2018-12-09T20:12:35.777Z,443.33
2018-12-09T20:15:04.955Z,441.40
2018-12-09T20:17:33.273Z,435.87
2018-12-09T20:20:02.065Z,426.35
2018-12-09T20:22:30.460Z,441.35
2018-12-09T20:24:58.793Z,440.50
2018-12-09T20:27:27.987Z,434.70
2018-12-09T20:29:57.325Z,434.67
2018-12-09T20:32:26.569Z,430.63
2018-12-09T20:34:55.795Z,434.95
2018-12-09T20:37:24.118Z,436.98
2018-12-09T20:39:52.437Z,438.07
2018-12-09T20:42:20.806Z,441.98
2018-12-09T20:44:50.032Z,445.20
2018-12-09T20:47:18.342Z,441.82
2018-12-09T20:49:47.582Z,442.80
2018-12-09T20:52:15.874Z,438.30
2018-12-09T20:54:44.221Z,456.52
2018-12-09T20:57:12.499Z,446.65
2018-12-09T20:59:40.811Z,449.73
2018-12-09T21:02:09.123Z,455.73
2018-12-09T21:04:37.479Z,461.35
2018-12-09T21:07:05.910Z,451.63
2018-12-09T21:09:34.206Z,465.10
2018-12-09T21:12:02.630Z,449.18
2018-12-09T21:14:30.987Z,457.35
2018-12-09T21:16:59.289Z,457.05
2018-12-09T21:19:27.615Z,446.90
2018-12-09T21:21:55.951Z,452.95
2018-12-09T21:24:25.910Z,444.90
2018-12-09T21:29:52.926Z,452.83
2018-12-09T21:32:21.223Z,435.60
2018-12-09T21:34:49.675Z,440.53
2018-12-09T21:37:18.041Z,442.10
2018-12-09T21:39:46.367Z,438.63
2018-12-09T21:42:14.835Z,439.37
2018-12-09T21:44:43.144Z,446.45
2018-12-09T21:47:12.080Z,444.70
2018-12-09T21:49:40.395Z,440.10
2018-12-09T21:52:08.680Z,446.37
2018-12-09T21:54:37.017Z,440.17
2018-12-09T21:57:05.323Z,446.60
2018-12-09T21:59:33.619Z,446.53
2018-12-09T22:02:02.039Z,444.55
2018-12-09T22:04:30.359Z,444.40
2018-12-09T22:06:58.674Z,448.15
2018-12-09T22:09:27.096Z,440.30
2018-12-09T22:11:55.429Z,452.25
2018-12-09T22:14:23.799Z,453.50
2018-12-09T22:16:52.177Z,449.23
2018-12-09T22:19:20.564Z,471.93
2018-12-09T22:21:49.354Z,474.02
2018-12-09T22:24:17.734Z,467.53
2018-12-09T22:26:46.034Z,476.50
2018-12-09T22:29:14.448Z,467.37
2018-12-09T22:31:42.786Z,467.22
2018-12-09T22:34:11.119Z,472.33
2018-12-09T22:36:39.449Z,459.50
2018-12-09T22:39:07.799Z,445.98
2018-12-09T22:41:37.030Z,406.67
2018-12-09T22:44:05.311Z,393.45
2018-12-09T22:46:34.534Z,365.10
2018-12-09T22:49:02.962Z,362.00
2018-12-09T22:51:32.249Z,355.85
2018-12-09T22:54:00.604Z,349.25
2018-12-09T22:56:28.936Z,350.00
2018-12-09T22:58:57.369Z,344.02
2018-12-09T23:01:25.847Z,348.07
2018-12-09T23:03:54.627Z,348.95
2018-12-09T23:06:23.284Z,354.48
2018-12-09T23:08:51.573Z,350.13
2018-12-09T23:11:19.894Z,355.02
2018-12-09T23:13:48.175Z,345.48
2018-12-09T23:16:16.626Z,345.00
2018-12-09T23:18:44.992Z,346.53
2018-12-09T23:21:13.290Z,341.38
2018-12-09T23:23:41.653Z,346.05
2018-12-09T23:26:09.967Z,339.72
2018-12-09T23:28:38.327Z,337.20
2018-12-09T23:31:06.630Z,347.52
2018-12-09T23:33:35.075Z,347.55
2018-12-09T23:36:03.560Z,350.02
2018-12-09T23:38:31.934Z,354.10
2018-12-09T23:41:00.303Z,355.47
2018-12-09T23:43:28.812Z,364.52
2018-12-09T23:45:57.170Z,367.37
2018-12-09T23:48:25.498Z,368.35
2018-12-09T23:50:53.811Z,369.40
2018-12-09T23:53:22.109Z,374.92
2018-12-09T23:55:50.448Z,379.50
2018-12-09T23:58:19.837Z,386.65
